Aviation Digital Data Service (ADDS)

Output produced by TAFs form (2124 UTC 24 January 2017)
found at http://www.aviationweather.gov/adds/tafs/
 
KRIC 241905Z 2419/2518 30017G27KT P6SM SCT040 BKN090 
     FM242100 30013G23KT P6SM SCT040 BKN090 
     FM242300 30012KT P6SM SCT120 
     FM250300 29004KT P6SM SKC